createdAt,value
2017-06-01T00:00:41.465Z,39.53
2017-06-01T00:01:43.151Z,42.99
2017-06-01T00:02:44.994Z,40.39
2017-06-01T00:03:46.753Z,40.88
2017-06-01T00:04:49.677Z,39.93
2017-06-01T00:05:53.585Z,40.30
2017-06-01T00:06:56.128Z,38.95
2017-06-01T00:07:58.529Z,39.91
2017-06-01T00:09:01.884Z,39.43
2017-06-01T00:10:04.394Z,41.64
2017-06-01T00:11:06.007Z,40.58
2017-06-01T00:12:07.740Z,40.58
2017-06-01T00:13:09.500Z,42.03
2017-06-01T00:14:11.245Z,39.81
2017-06-01T00:15:12.879Z,40.30
2017-06-01T00:16:14.559Z,39.24
2017-06-01T00:17:16.274Z,40.11
2017-06-01T00:18:18.022Z,40.11
2017-06-01T00:19:19.697Z,40.66
2017-06-01T00:20:21.410Z,41.53
2017-06-01T00:21:23.164Z,40.49
2017-06-01T00:22:24.886Z,39.99
2017-06-01T00:23:26.659Z,41.33
2017-06-01T00:24:28.406Z,41.43
2017-06-01T00:25:30.082Z,42.99
2017-06-01T00:26:31.824Z,41.33
2017-06-01T00:27:33.551Z,40.88
2017-06-01T00:28:35.409Z,40.58
2017-06-01T00:29:37.154Z,40.47
2017-06-01T00:30:38.870Z,40.95
2017-06-01T00:31:40.600Z,44.91
2017-06-01T00:32:42.332Z,40.85
2017-06-01T00:33:44.095Z,40.47
2017-06-01T00:34:45.856Z,41.14
2017-06-01T00:35:47.622Z,41.53
2017-06-01T00:36:49.316Z,40.37
2017-06-01T00:37:51.021Z,41.05
2017-06-01T00:38:52.754Z,41.43
2017-06-01T00:39:54.438Z,41.33
2017-06-01T00:40:56.124Z,41.62
2017-06-01T00:41:57.797Z,42.97
2017-06-01T00:42:59.446Z,42.20
2017-06-01T00:44:01.200Z,41.53
2017-06-01T00:45:02.833Z,42.77
2017-06-01T00:46:04.512Z,41.24
2017-06-01T00:47:06.195Z,42.00
2017-06-01T00:48:07.930Z,41.62
2017-06-01T00:49:49.165Z,41.33
2017-06-01T00:50:50.834Z,43.07
2017-06-01T00:51:52.495Z,42.20
2017-06-01T00:52:54.174Z,42.20
2017-06-01T00:53:55.876Z,42.30
2017-06-01T00:54:57.629Z,41.53
2017-06-01T00:55:59.277Z,41.72
2017-06-01T00:57:01.014Z,43.84
2017-06-01T00:58:02.663Z,42.30
2017-06-01T00:59:04.318Z,41.79
2017-06-01T01:00:05.997Z,41.89
2017-06-01T01:01:07.654Z,41.79
2017-06-01T01:02:09.381Z,42.27
2017-06-01T01:03:11.040Z,42.18
2017-06-01T01:04:12.693Z,42.18
2017-06-01T01:05:14.318Z,41.60
2017-06-01T01:06:16.008Z,41.89
2017-06-01T01:07:17.641Z,43.81
2017-06-01T01:08:19.308Z,42.56
2017-06-01T01:09:21.035Z,41.89
2017-06-01T01:10:22.791Z,41.79
2017-06-01T01:11:24.303Z,42.94
2017-06-01T01:12:25.959Z,42.56
2017-06-01T01:13:27.598Z,42.27
2017-06-01T01:14:29.272Z,43.04
2017-06-01T01:15:30.989Z,42.37
2017-06-01T01:16:32.614Z,42.56
2017-06-01T01:17:34.270Z,41.99
2017-06-01T01:18:35.896Z,42.66
2017-06-01T01:19:37.552Z,44.20
2017-06-01T01:20:39.283Z,43.52
2017-06-01T01:21:40.942Z,42.27
2017-06-01T01:22:42.621Z,41.99
2017-06-01T01:23:44.288Z,42.37
2017-06-01T01:24:45.918Z,42.37
2017-06-01T01:25:47.610Z,43.33
2017-06-01T01:26:49.284Z,43.14
2017-06-01T01:27:50.936Z,42.47
2017-06-01T01:28:52.580Z,43.23
2017-06-01T01:29:54.214Z,43.62
2017-06-01T01:30:55.869Z,44.00
2017-06-01T01:32:37.075Z,42.94
2017-06-01T01:33:38.732Z,43.14
2017-06-01T01:34:40.457Z,42.85
2017-06-01T01:35:42.122Z,42.94
2017-06-01T01:36:43.754Z,42.83
2017-06-01T01:37:45.525Z,43.50
2017-06-01T01:38:47.161Z,43.14
2017-06-01T01:39:48.818Z,43.40
2017-06-01T01:40:50.486Z,43.40
2017-06-01T01:41:52.146Z,43.79
2017-06-01T01:42:53.802Z,43.60
2017-06-01T01:43:55.448Z,43.70
2017-06-01T01:44:57.089Z,43.50
2017-06-01T01:45:58.807Z,44.48
2017-06-01T01:47:00.499Z,42.73
2017-06-01T01:48:02.222Z,43.21
2017-06-01T01:49:03.909Z,44.37
2017-06-01T01:50:05.570Z,43.60
2017-06-01T01:51:07.335Z,43.60
2017-06-01T01:52:09.001Z,44.84
2017-06-01T01:53:10.732Z,45.35
2017-06-01T01:54:12.437Z,44.94
2017-06-01T01:55:14.111Z,43.70
2017-06-01T01:56:15.830Z,43.60
2017-06-01T01:57:17.527Z,43.98
2017-06-01T01:58:19.272Z,44.65
2017-06-01T01:59:20.927Z,43.98
2017-06-01T02:00:22.580Z,44.27
2017-06-01T02:01:24.281Z,43.98
2017-06-01T02:02:25.908Z,45.61
2017-06-01T02:03:27.657Z,44.37
2017-06-01T02:04:29.374Z,45.61
2017-06-01T02:05:30.994Z,44.68
2017-06-01T02:06:32.661Z,44.75
2017-06-01T02:07:34.277Z,44.94
2017-06-01T02:08:36.039Z,44.17
2017-06-01T02:09:37.717Z,44.56
2017-06-01T02:10:39.436Z,44.65
2017-06-01T02:11:41.106Z,44.17
2017-06-01T02:12:42.831Z,44.46
2017-06-01T02:13:44.487Z,45.42
2017-06-01T02:14:46.215Z,45.52
2017-06-01T02:15:47.858Z,46.00
2017-06-01T02:16:49.504Z,45.61
2017-06-01T02:17:51.124Z,44.65
2017-06-01T02:18:52.738Z,44.65
2017-06-01T02:19:54.383Z,44.46
2017-06-01T02:20:56.032Z,44.27
2017-06-01T02:21:57.694Z,44.84
2017-06-01T02:22:59.308Z,45.52
2017-06-01T02:24:40.452Z,45.71
2017-06-01T02:25:42.066Z,44.46
2017-06-01T02:26:43.753Z,45.61
2017-06-01T02:27:45.364Z,44.92
2017-06-01T02:28:47.021Z,46.58
2017-06-01T02:29:48.769Z,46.19
2017-06-01T02:30:50.381Z,46.00
2017-06-01T02:31:52.000Z,45.23
2017-06-01T02:32:53.621Z,44.94
2017-06-01T02:33:55.251Z,45.81
2017-06-01T02:34:56.998Z,46.77
2017-06-01T02:35:58.656Z,46.48
2017-06-01T02:37:00.292Z,46.38
2017-06-01T02:38:02.013Z,44.94
2017-06-01T02:39:03.655Z,45.71
2017-06-01T02:40:05.337Z,45.11
2017-06-01T02:41:06.987Z,45.11
2017-06-01T02:42:08.620Z,46.17
2017-06-01T02:43:10.230Z,45.01
2017-06-01T02:44:11.902Z,45.11
2017-06-01T02:45:13.603Z,45.78
2017-06-01T02:46:15.253Z,45.50
2017-06-01T02:47:16.864Z,45.50
2017-06-01T02:48:18.466Z,47.99
2017-06-01T02:49:20.137Z,47.41
2017-06-01T02:50:21.805Z,46.65
2017-06-01T02:51:23.470Z,45.76
2017-06-01T02:52:25.122Z,47.80
2017-06-01T02:53:26.788Z,46.45
2017-06-01T02:54:28.464Z,46.84
2017-06-01T02:55:30.183Z,47.03
2017-06-01T02:56:31.900Z,46.26
2017-06-01T02:57:33.543Z,46.55
2017-06-01T02:58:35.238Z,46.65
2017-06-01T02:59:36.937Z,46.26
2017-06-01T03:00:38.611Z,47.51
2017-06-01T03:01:40.271Z,46.26
2017-06-01T03:02:41.892Z,46.24
2017-06-01T03:03:43.603Z,46.62
2017-06-01T03:04:45.336Z,46.81
2017-06-01T03:05:47.064Z,47.97
2017-06-01T03:06:48.737Z,47.10
2017-06-01T03:07:50.451Z,47.20
2017-06-01T03:08:52.156Z,47.51
2017-06-01T03:09:53.953Z,47.32
2017-06-01T03:10:55.763Z,47.39
2017-06-01T03:11:57.502Z,47.39
2017-06-01T03:12:59.254Z,48.57
2017-06-01T03:14:00.944Z,47.01
2017-06-01T03:15:02.684Z,48.93
2017-06-01T03:16:04.446Z,47.32
2017-06-01T03:17:06.128Z,48.09
2017-06-01T03:18:07.912Z,47.39
2017-06-01T03:19:09.681Z,47.20
2017-06-01T03:20:11.374Z,46.72
2017-06-01T03:21:13.073Z,47.68
2017-06-01T03:22:14.743Z,47.30
2017-06-01T03:23:16.482Z,47.68
2017-06-01T03:24:18.224Z,47.20
2017-06-01T03:25:19.904Z,49.33
2017-06-01T03:26:21.555Z,48.07
2017-06-01T03:27:23.315Z,48.28
2017-06-01T03:28:24.957Z,47.39
2017-06-01T03:29:26.701Z,47.49
2017-06-01T03:30:28.443Z,47.97
2017-06-01T03:31:30.140Z,47.39
2017-06-01T03:32:31.835Z,48.64
2017-06-01T03:33:33.569Z,47.20
2017-06-01T03:34:35.266Z,48.07
2017-06-01T03:35:36.987Z,48.07
2017-06-01T03:36:38.669Z,48.83
2017-06-01T03:37:40.339Z,47.87
2017-06-01T03:38:42.102Z,47.77
2017-06-01T03:39:43.794Z,48.25
2017-06-01T03:40:45.496Z,48.07
2017-06-01T03:41:47.191Z,49.50
2017-06-01T03:42:48.888Z,48.35
2017-06-01T03:43:50.636Z,48.07
2017-06-01T03:44:52.277Z,47.77
2017-06-01T03:45:53.949Z,48.25
2017-06-01T03:46:55.565Z,49.31
2017-06-01T03:47:57.218Z,48.83
2017-06-01T03:48:58.980Z,48.54
2017-06-01T03:50:00.695Z,48.44
2017-06-01T03:51:02.424Z,49.12
2017-06-01T03:52:04.080Z,48.83
2017-06-01T03:53:05.728Z,49.31
2017-06-01T03:54:07.423Z,48.64
2017-06-01T03:55:09.152Z,49.12
2017-06-01T03:56:10.791Z,48.64
2017-06-01T03:57:12.550Z,48.07
2017-06-01T03:58:14.210Z,48.33
2017-06-01T03:59:15.788Z,48.90
2017-06-01T04:00:17.485Z,49.21
2017-06-01T04:01:19.128Z,48.61
2017-06-01T04:02:20.790Z,49.96
2017-06-01T04:03:22.478Z,49.50
2017-06-01T04:04:24.220Z,49.41
2017-06-01T04:05:25.890Z,48.93
2017-06-01T04:06:27.596Z,48.93
2017-06-01T04:07:29.213Z,49.98
2017-06-01T04:08:30.815Z,48.74
2017-06-01T04:09:32.508Z,48.93
2017-06-01T04:10:34.187Z,49.41
2017-06-01T04:11:35.785Z,48.64
2017-06-01T04:12:37.428Z,48.93
2017-06-01T04:13:39.102Z,49.10
2017-06-01T04:14:40.816Z,48.93
2017-06-01T04:15:42.475Z,49.21
2017-06-01T04:16:44.073Z,49.67
2017-06-01T04:17:45.694Z,49.67
2017-06-01T04:18:47.338Z,49.19
2017-06-01T04:19:49.024Z,49.02
2017-06-01T04:20:51.547Z,49.50
2017-06-01T04:21:53.223Z,49.69
2017-06-01T04:23:34.403Z,50.46
2017-06-01T04:24:36.074Z,49.98
2017-06-01T04:25:37.711Z,49.41
2017-06-01T04:26:39.337Z,49.79
2017-06-01T04:27:40.962Z,49.82
2017-06-01T04:28:42.586Z,48.38
2017-06-01T04:29:44.209Z,47.71
2017-06-01T04:30:45.907Z,48.09
2017-06-01T04:31:47.501Z,48.18
2017-06-01T04:32:49.170Z,47.03
2017-06-01T04:33:50.882Z,46.96
2017-06-01T04:34:52.453Z,46.28
2017-06-01T04:35:54.136Z,46.58
2017-06-01T04:36:55.751Z,45.81
2017-06-01T04:37:57.442Z,46.09
2017-06-01T04:38:59.051Z,45.54
2017-06-01T04:40:00.694Z,46.12
2017-06-01T04:41:02.319Z,46.69
2017-06-01T04:42:03.935Z,45.45
2017-06-01T04:43:05.637Z,44.77
2017-06-01T04:44:07.310Z,44.70
2017-06-01T04:45:08.999Z,44.99
2017-06-01T04:46:10.660Z,44.22
2017-06-01T04:47:12.314Z,44.22
2017-06-01T04:48:14.051Z,43.64
2017-06-01T04:49:15.740Z,44.05
2017-06-01T04:50:17.522Z,44.05
2017-06-01T04:51:19.191Z,42.99
2017-06-01T04:52:20.874Z,43.95
2017-06-01T04:53:22.701Z,43.28
2017-06-01T04:54:24.355Z,43.08
2017-06-01T04:55:26.022Z,42.43
2017-06-01T04:56:27.705Z,42.82
2017-06-01T04:57:29.378Z,43.20
2017-06-01T04:58:31.098Z,41.95
2017-06-01T04:59:32.756Z,40.89
2017-06-01T05:00:34.448Z,41.28
2017-06-01T05:01:36.124Z,41.66
2017-06-01T05:02:37.863Z,43.01
2017-06-01T05:03:39.567Z,41.78
2017-06-01T05:04:41.236Z,41.11
2017-06-01T05:05:42.891Z,42.93
2017-06-01T05:06:44.552Z,42.16
2017-06-01T05:07:46.257Z,43.24
2017-06-01T05:08:48.011Z,41.89
2017-06-01T05:09:49.639Z,42.28
2017-06-01T05:10:51.325Z,41.51
2017-06-01T05:11:53.033Z,41.71
2017-06-01T05:12:54.697Z,42.47
2017-06-01T05:13:56.420Z,41.03
2017-06-01T05:14:58.047Z,41.32
2017-06-01T05:15:59.691Z,39.51
2017-06-01T05:17:01.355Z,40.86
2017-06-01T05:18:03.899Z,40.37
2017-06-01T05:19:05.597Z,40.37
2017-06-01T05:20:07.269Z,41.53
2017-06-01T05:21:08.916Z,39.51
2017-06-01T05:22:10.536Z,40.28
2017-06-01T05:23:12.214Z,41.34
2017-06-01T05:24:13.916Z,40.76
2017-06-01T05:25:15.605Z,40.49
2017-06-01T05:26:17.613Z,40.78
2017-06-01T05:27:19.271Z,39.53
2017-06-01T05:28:20.983Z,40.01
2017-06-01T05:29:22.625Z,38.95
2017-06-01T05:30:24.267Z,38.95
2017-06-01T05:31:25.876Z,39.91
2017-06-01T05:32:27.495Z,37.98
2017-06-01T05:33:29.188Z,38.08
2017-06-01T05:34:30.831Z,39.72
2017-06-01T05:35:32.531Z,39.36
2017-06-01T05:36:34.197Z,37.33
2017-06-01T05:37:36.063Z,38.49
2017-06-01T05:38:37.770Z,38.97
2017-06-01T05:39:39.377Z,38.87
2017-06-01T05:40:41.003Z,39.06
2017-06-01T05:41:42.846Z,39.54
2017-06-01T05:42:44.706Z,39.54
2017-06-01T05:43:46.562Z,38.60
2017-06-01T05:44:48.414Z,38.70
2017-06-01T05:45:50.112Z,36.77
2017-06-01T05:46:51.813Z,37.83
2017-06-01T05:47:53.448Z,38.99
2017-06-01T05:48:55.067Z,37.93
2017-06-01T05:50:36.251Z,38.70
2017-06-01T05:51:37.860Z,38.21
2017-06-01T05:52:39.576Z,38.21
2017-06-01T05:53:41.151Z,37.35
2017-06-01T05:54:42.863Z,37.35
2017-06-01T05:55:44.583Z,38.21
2017-06-01T05:56:46.255Z,37.25
2017-06-01T05:57:47.858Z,35.44
2017-06-01T05:58:49.505Z,37.65
2017-06-01T05:59:51.152Z,37.46
2017-06-01T06:00:52.806Z,37.17
2017-06-01T06:01:54.463Z,37.85
2017-06-01T06:02:56.090Z,37.85
2017-06-01T06:03:57.708Z,37.46
2017-06-01T06:04:59.344Z,37.17
2017-06-01T06:06:01.018Z,37.46
2017-06-01T06:07:02.706Z,37.58
2017-06-01T06:08:04.330Z,37.10
2017-06-01T06:09:05.925Z,38.83
2017-06-01T06:10:07.512Z,38.91
2017-06-01T06:11:09.216Z,39.22
2017-06-01T06:12:10.875Z,39.51
2017-06-01T06:13:12.568Z,39.90
2017-06-01T06:14:14.271Z,39.61
2017-06-01T06:15:15.887Z,39.90
2017-06-01T06:16:17.646Z,39.99
2017-06-01T06:17:19.282Z,39.70
2017-06-01T06:18:20.990Z,39.61
2017-06-01T06:19:22.653Z,39.70
2017-06-01T06:20:24.317Z,39.04
2017-06-01T06:21:25.993Z,39.03
2017-06-01T06:22:27.777Z,38.95
2017-06-01T06:23:29.491Z,38.46
2017-06-01T06:24:31.214Z,38.46
2017-06-01T06:25:32.876Z,37.98
2017-06-01T06:26:34.515Z,37.88
2017-06-01T06:27:36.184Z,37.30
2017-06-01T06:28:37.912Z,37.70
2017-06-01T06:29:39.619Z,37.30
2017-06-01T06:30:41.367Z,36.94
2017-06-01T06:31:43.016Z,36.74
2017-06-01T06:32:44.713Z,36.46
2017-06-01T06:33:46.404Z,36.36
2017-06-01T06:34:48.158Z,35.88
2017-06-01T06:35:49.880Z,36.46
2017-06-01T06:36:51.577Z,39.06
2017-06-01T06:37:53.272Z,39.84
2017-06-01T06:38:54.964Z,39.16
2017-06-01T06:39:56.675Z,39.36
2017-06-01T06:40:58.369Z,39.36
2017-06-01T06:42:00.157Z,39.06
2017-06-01T06:43:01.871Z,38.79
2017-06-01T06:44:03.565Z,39.18
2017-06-01T06:45:05.253Z,38.70
2017-06-01T06:46:06.893Z,39.09
2017-06-01T06:47:08.604Z,39.47
2017-06-01T06:48:10.245Z,39.47
2017-06-01T06:49:11.885Z,38.99
2017-06-01T06:50:13.504Z,39.37
2017-06-01T06:51:15.211Z,39.18
2017-06-01T06:52:16.918Z,39.28
2017-06-01T06:53:18.565Z,39.18
2017-06-01T06:54:20.219Z,39.01
2017-06-01T06:55:21.906Z,39.01
2017-06-01T06:56:23.530Z,39.11
2017-06-01T06:57:25.217Z,39.01
2017-06-01T06:58:26.851Z,39.11
2017-06-01T06:59:28.475Z,38.93
2017-06-01T07:00:30.118Z,39.20
2017-06-01T07:01:31.794Z,39.12
2017-06-01T07:02:33.484Z,38.93
2017-06-01T07:03:35.123Z,39.03
2017-06-01T07:04:36.768Z,39.32
2017-06-01T07:05:38.369Z,39.03
2017-06-01T07:06:40.057Z,39.32
2017-06-01T07:07:41.668Z,38.93
2017-06-01T07:08:43.265Z,39.22
2017-06-01T07:09:44.891Z,39.22
2017-06-01T07:10:46.483Z,38.73
2017-06-01T07:11:48.100Z,38.95
2017-06-01T07:12:49.793Z,38.66
2017-06-01T07:13:51.455Z,38.46
2017-06-01T07:14:53.058Z,38.07
2017-06-01T07:15:54.686Z,38.56
2017-06-01T07:16:56.308Z,38.46
2017-06-01T07:17:58.005Z,38.07
2017-06-01T07:18:59.628Z,37.90
2017-06-01T07:20:02.087Z,38.39
2017-06-01T07:21:03.767Z,38.09
2017-06-01T07:22:05.375Z,38.39
2017-06-01T07:23:07.034Z,38.48
2017-06-01T07:24:08.660Z,38.19
2017-06-01T07:25:10.295Z,38.19
2017-06-01T07:26:11.915Z,38.68
2017-06-01T07:27:13.520Z,37.71
2017-06-01T07:28:15.196Z,38.50
2017-06-01T07:29:17.929Z,38.50
2017-06-01T07:30:19.620Z,38.58
2017-06-01T07:31:21.313Z,38.50
2017-06-01T07:33:02.442Z,38.70
2017-06-01T07:34:04.066Z,38.31
2017-06-01T07:35:05.710Z,38.12
2017-06-01T07:36:07.350Z,37.92
2017-06-01T07:37:08.948Z,38.12
2017-06-01T07:38:10.565Z,37.63
2017-06-01T07:39:12.161Z,38.50
2017-06-01T07:40:13.788Z,37.73
2017-06-01T07:41:15.407Z,37.84
2017-06-01T07:42:17.063Z,37.35
2017-06-01T07:43:18.731Z,37.65
2017-06-01T07:44:20.337Z,38.13
2017-06-01T07:45:22.019Z,38.04
2017-06-01T07:46:23.671Z,36.68
2017-06-01T07:47:25.353Z,37.74
2017-06-01T07:48:26.962Z,36.60
2017-06-01T07:49:28.603Z,36.30
2017-06-01T07:50:30.347Z,37.18
2017-06-01T07:51:32.014Z,38.15
2017-06-01T07:52:33.672Z,37.96
2017-06-01T07:53:35.378Z,36.79
2017-06-01T07:54:37.047Z,37.57
2017-06-01T07:55:38.731Z,36.99
2017-06-01T07:56:40.402Z,36.89
2017-06-01T07:57:42.044Z,36.40
2017-06-01T07:58:43.763Z,35.92
2017-06-01T07:59:45.386Z,36.52
2017-06-01T08:00:47.062Z,36.04
2017-06-01T08:01:48.709Z,36.71
2017-06-01T08:02:50.336Z,37.01
2017-06-01T08:03:52.052Z,37.30
2017-06-01T08:04:53.661Z,37.20
2017-06-01T08:05:55.336Z,36.61
2017-06-01T08:06:57.001Z,35.74
2017-06-01T08:07:58.684Z,35.84
2017-06-01T08:09:00.374Z,35.64
2017-06-01T08:10:02.014Z,35.84
2017-06-01T08:11:03.681Z,35.66
2017-06-01T08:12:05.331Z,36.34
2017-06-01T08:13:06.975Z,35.76
2017-06-01T08:14:08.698Z,35.86
2017-06-01T08:15:10.352Z,35.76
2017-06-01T08:16:12.012Z,35.76
2017-06-01T08:17:13.687Z,36.05
2017-06-01T08:18:15.337Z,36.63
2017-06-01T08:19:17.041Z,36.05
2017-06-01T08:20:18.752Z,35.76
2017-06-01T08:21:20.690Z,36.05
2017-06-01T08:22:22.346Z,36.63
2017-06-01T08:24:03.513Z,34.80
2017-06-01T08:25:05.202Z,34.80
2017-06-01T08:26:06.840Z,35.49
2017-06-01T08:27:08.530Z,35.78
2017-06-01T08:28:10.180Z,34.80
2017-06-01T08:29:11.797Z,35.88
2017-06-01T08:30:13.420Z,36.07
2017-06-01T08:31:15.024Z,36.07
2017-06-01T08:32:16.686Z,35.29
2017-06-01T08:33:18.339Z,34.61
2017-06-01T08:34:19.909Z,34.42
2017-06-01T08:35:21.591Z,35.39
2017-06-01T08:36:23.189Z,34.70
2017-06-01T08:37:24.950Z,34.52
2017-06-01T08:38:26.586Z,34.82
2017-06-01T08:39:28.156Z,34.63
2017-06-01T08:40:29.778Z,33.95
2017-06-01T08:41:31.419Z,34.05
2017-06-01T08:42:33.088Z,33.46
2017-06-01T08:43:34.708Z,33.75
2017-06-01T08:44:36.384Z,33.85
2017-06-01T08:45:37.993Z,34.24
2017-06-01T08:46:39.598Z,34.05
2017-06-01T08:47:41.243Z,34.72
2017-06-01T08:48:42.873Z,35.50
2017-06-01T08:49:44.519Z,35.70
2017-06-01T08:50:46.137Z,35.70
2017-06-01T08:51:47.784Z,34.05
2017-06-01T08:52:49.458Z,35.71
2017-06-01T08:53:51.050Z,34.45
2017-06-01T08:54:52.679Z,34.64
2017-06-01T08:55:54.302Z,34.64
2017-06-01T08:56:55.919Z,33.28
2017-06-01T08:57:57.605Z,35.23
2017-06-01T08:58:59.231Z,34.45
2017-06-01T09:00:00.904Z,33.28
2017-06-01T09:01:02.526Z,33.86
2017-06-01T09:02:04.166Z,33.38
2017-06-01T09:03:05.835Z,33.18
2017-06-01T09:04:07.451Z,33.77
2017-06-01T09:05:09.180Z,32.60
2017-06-01T09:06:10.798Z,32.81
2017-06-01T09:07:12.442Z,33.38
2017-06-01T09:08:14.084Z,32.62
2017-06-01T09:09:15.676Z,31.74
2017-06-01T09:10:17.406Z,32.42
2017-06-01T09:11:19.049Z,32.42
2017-06-01T09:12:20.654Z,32.52
2017-06-01T09:13:22.301Z,33.11
2017-06-01T09:14:24.007Z,32.62
2017-06-01T09:15:25.704Z,33.69
2017-06-01T09:16:27.398Z,33.01
2017-06-01T09:17:29.081Z,31.93
2017-06-01T09:18:30.781Z,32.91
2017-06-01T09:19:32.544Z,32.42
2017-06-01T09:20:34.246Z,33.39
2017-06-01T09:21:35.930Z,33.88
2017-06-01T09:22:37.675Z,34.29
2017-06-01T09:23:39.326Z,36.24
2017-06-01T09:24:41.061Z,33.31
2017-06-01T09:25:42.751Z,34.00
2017-06-01T09:26:44.452Z,32.63
2017-06-01T09:27:46.120Z,32.92
2017-06-01T09:28:47.847Z,33.80
2017-06-01T09:29:49.587Z,32.24
2017-06-01T09:30:51.255Z,32.63
2017-06-01T09:31:52.927Z,33.31
2017-06-01T09:32:54.580Z,32.82
2017-06-01T09:33:56.226Z,31.85
2017-06-01T09:34:58.021Z,32.05
2017-06-01T09:35:59.648Z,32.43
2017-06-01T09:37:01.304Z,32.94
2017-06-01T09:38:02.979Z,31.07
2017-06-01T09:39:04.672Z,33.61
2017-06-01T09:40:06.494Z,31.67
2017-06-01T09:41:08.248Z,31.38
2017-06-01T09:42:10.009Z,31.37
2017-06-01T09:43:11.698Z,31.19
2017-06-01T09:44:13.386Z,31.37
2017-06-01T09:45:15.129Z,31.09
2017-06-01T09:46:16.897Z,31.19
2017-06-01T09:47:18.584Z,31.09
2017-06-01T09:48:20.253Z,33.33
2017-06-01T09:49:21.994Z,34.11
2017-06-01T09:50:23.711Z,31.67
2017-06-01T09:51:25.438Z,30.99
2017-06-01T09:52:27.118Z,33.33
2017-06-01T09:53:28.866Z,30.90
2017-06-01T09:54:30.493Z,30.99
2017-06-01T09:55:32.217Z,30.90
2017-06-01T09:56:33.917Z,31.57
2017-06-01T09:57:35.559Z,30.60
2017-06-01T09:58:37.331Z,30.90
2017-06-01T09:59:39.009Z,31.48
2017-06-01T10:00:40.690Z,33.04
2017-06-01T10:01:42.407Z,32.35
2017-06-01T10:02:44.119Z,30.62
2017-06-01T10:03:45.845Z,30.11
2017-06-01T10:04:47.504Z,30.70
2017-06-01T10:05:49.276Z,30.51
2017-06-01T10:07:33.526Z,32.26
2017-06-01T10:08:35.258Z,30.80
2017-06-01T10:09:36.951Z,30.32
2017-06-01T10:10:38.610Z,32.08
2017-06-01T10:11:40.288Z,31.88
2017-06-01T10:12:42.036Z,30.03
2017-06-01T10:13:43.704Z,30.42
2017-06-01T10:14:45.396Z,31.30
2017-06-01T10:15:47.057Z,30.03
2017-06-01T10:16:48.743Z,30.62
2017-06-01T10:17:50.411Z,30.62
2017-06-01T10:18:52.123Z,30.32
2017-06-01T10:19:53.765Z,33.33
2017-06-01T10:20:55.442Z,31.01
2017-06-01T10:22:36.591Z,30.22
2017-06-01T10:23:38.190Z,29.92
2017-06-01T10:24:39.841Z,29.63
2017-06-01T10:25:41.545Z,30.13
2017-06-01T10:26:43.238Z,30.42
2017-06-01T10:27:44.969Z,29.82
2017-06-01T10:28:46.886Z,29.43
2017-06-01T10:29:48.588Z,29.43
2017-06-01T10:30:50.226Z,30.02
2017-06-01T10:31:51.878Z,30.22
2017-06-01T10:32:53.642Z,30.21
2017-06-01T10:33:55.261Z,30.51
2017-06-01T10:34:56.930Z,31.28
2017-06-01T10:35:58.576Z,30.31
2017-06-01T10:37:00.219Z,29.43
2017-06-01T10:38:01.970Z,29.33
2017-06-01T10:39:03.606Z,30.60
2017-06-01T10:40:05.264Z,30.31
2017-06-01T10:41:06.883Z,30.60
2017-06-01T10:42:08.549Z,30.60
2017-06-01T10:43:10.251Z,32.26
2017-06-01T10:44:11.903Z,32.35
2017-06-01T10:45:13.565Z,30.51
2017-06-01T10:46:15.240Z,30.31
2017-06-01T10:47:16.920Z,30.90
2017-06-01T10:48:18.658Z,30.70
2017-06-01T10:49:20.323Z,30.60
2017-06-01T10:50:21.979Z,30.80
2017-06-01T10:51:23.665Z,30.51
2017-06-01T10:52:25.307Z,31.77
2017-06-01T10:53:27.054Z,31.19
2017-06-01T10:54:28.716Z,30.90
2017-06-01T10:55:30.399Z,30.70
2017-06-01T10:56:32.029Z,31.07
2017-06-01T10:57:33.695Z,30.51
2017-06-01T10:58:35.413Z,30.78
2017-06-01T10:59:37.060Z,31.67
2017-06-01T11:00:38.736Z,30.49
2017-06-01T11:01:40.402Z,30.78
2017-06-01T11:02:42.040Z,31.37
2017-06-01T11:03:43.776Z,31.07
2017-06-01T11:04:45.413Z,30.99
2017-06-01T11:05:47.058Z,30.88
2017-06-01T11:06:48.716Z,30.78
2017-06-01T11:07:50.328Z,30.78
2017-06-01T11:08:52.004Z,30.68
2017-06-01T11:09:53.615Z,30.58
2017-06-01T11:10:55.230Z,30.78
2017-06-01T11:11:56.870Z,30.49
2017-06-01T11:12:58.535Z,30.39
2017-06-01T11:14:00.274Z,30.29
2017-06-01T11:15:01.970Z,30.68
2017-06-01T11:16:03.665Z,30.78
2017-06-01T11:17:05.364Z,30.49
2017-06-01T11:18:07.013Z,30.49
2017-06-01T11:19:09.054Z,30.58
2017-06-01T11:20:10.714Z,30.98
2017-06-01T11:21:12.358Z,30.68
2017-06-01T11:22:14.050Z,31.07
2017-06-01T11:23:15.715Z,30.88
2017-06-01T11:24:17.410Z,31.17
2017-06-01T11:25:19.091Z,30.39
2017-06-01T11:26:20.697Z,30.98
2017-06-01T11:27:22.371Z,30.88
2017-06-01T11:28:24.016Z,30.68
2017-06-01T11:29:25.735Z,30.58
2017-06-01T11:30:27.430Z,30.58
2017-06-01T11:31:29.101Z,30.68
2017-06-01T11:32:30.760Z,30.87
2017-06-01T11:33:32.424Z,30.67
2017-06-01T11:34:34.111Z,30.28
2017-06-01T11:35:35.798Z,30.98
2017-06-01T11:36:37.425Z,30.98
2017-06-01T11:37:39.135Z,30.47
2017-06-01T11:38:40.824Z,30.67
2017-06-01T11:39:42.482Z,30.67
2017-06-01T11:40:44.134Z,31.25
2017-06-01T11:41:45.764Z,30.87
2017-06-01T11:42:47.530Z,30.67
2017-06-01T11:43:49.343Z,30.67
2017-06-01T11:44:51.971Z,31.25
2017-06-01T11:45:53.623Z,30.67
2017-06-01T11:46:55.280Z,31.25
2017-06-01T11:47:57.027Z,30.87
2017-06-01T11:48:58.658Z,31.06
2017-06-01T11:50:00.294Z,30.57
2017-06-01T11:51:02.722Z,30.96
2017-06-01T11:52:04.318Z,30.87
2017-06-01T11:53:06.013Z,31.64
2017-06-01T11:54:07.635Z,30.47
2017-06-01T11:55:09.240Z,31.06
2017-06-01T11:56:10.855Z,30.96
2017-06-01T11:57:12.498Z,30.87
2017-06-01T11:58:14.226Z,31.06
2017-06-01T11:59:15.862Z,31.25
2017-06-01T12:00:17.544Z,30.87
2017-06-01T12:01:20.051Z,30.96
2017-06-01T12:02:21.635Z,31.35
2017-06-01T12:03:23.298Z,30.96
2017-06-01T12:04:24.905Z,30.87
2017-06-01T12:05:26.591Z,31.06
2017-06-01T12:06:28.277Z,30.77
2017-06-01T12:07:29.964Z,30.96
2017-06-01T12:08:31.627Z,30.96
2017-06-01T12:09:33.390Z,30.87
2017-06-01T12:10:35.042Z,31.16
2017-06-01T12:11:36.761Z,31.53
2017-06-01T12:12:38.445Z,31.14
2017-06-01T12:13:40.140Z,31.14
2017-06-01T12:14:41.805Z,31.04
2017-06-01T12:15:43.497Z,31.54
2017-06-01T12:16:45.242Z,30.96
2017-06-01T12:17:46.915Z,31.43
2017-06-01T12:18:48.593Z,31.24
2017-06-01T12:19:50.261Z,31.14
2017-06-01T12:20:51.916Z,31.14
2017-06-01T12:21:53.650Z,30.85
2017-06-01T12:22:55.295Z,31.24
2017-06-01T12:23:56.941Z,31.43
2017-06-01T12:24:58.687Z,31.24
2017-06-01T12:26:00.342Z,31.24
2017-06-01T12:27:02.062Z,31.14
2017-06-01T12:28:03.772Z,31.34
2017-06-01T12:29:05.446Z,31.24
2017-06-01T12:30:07.109Z,30.94
2017-06-01T12:31:08.757Z,31.24
2017-06-01T12:32:10.408Z,30.75
2017-06-01T12:33:12.180Z,31.24
2017-06-01T12:34:13.875Z,31.24
2017-06-01T12:35:15.581Z,31.04
2017-06-01T12:36:17.225Z,31.53
2017-06-01T12:37:18.873Z,31.24
2017-06-01T12:38:20.592Z,31.24
2017-06-01T12:39:22.201Z,31.53
2017-06-01T12:40:23.876Z,31.43
2017-06-01T12:41:25.478Z,31.43
2017-06-01T12:42:27.849Z,31.43
2017-06-01T12:43:29.577Z,31.53
2017-06-01T12:44:31.223Z,31.43
2017-06-01T12:45:32.879Z,31.34
2017-06-01T12:46:34.521Z,31.63
2017-06-01T12:47:36.146Z,31.34
2017-06-01T12:48:37.851Z,31.63
2017-06-01T12:49:39.493Z,31.73
2017-06-01T12:50:41.140Z,31.53
2017-06-01T12:51:42.754Z,31.14
2017-06-01T12:52:44.386Z,31.32
2017-06-01T12:53:46.113Z,31.53
2017-06-01T12:54:47.753Z,31.41
2017-06-01T12:55:49.402Z,31.73
2017-06-01T12:56:51.094Z,31.92
2017-06-01T12:57:52.749Z,31.61
2017-06-01T12:58:54.478Z,31.51
2017-06-01T12:59:56.174Z,32.00
2017-06-01T13:00:57.815Z,31.71
2017-06-01T13:01:59.479Z,31.81
2017-06-01T13:03:01.167Z,32.10
2017-06-01T13:04:02.918Z,31.81
2017-06-01T13:05:04.634Z,31.51
2017-06-01T13:06:06.298Z,31.81
2017-06-01T13:07:07.953Z,31.61
2017-06-01T13:08:09.596Z,31.61
2017-06-01T13:09:11.337Z,32.00
2017-06-01T13:10:12.975Z,31.81
2017-06-01T13:11:14.608Z,31.81
2017-06-01T13:12:16.279Z,32.00
2017-06-01T13:13:17.941Z,31.90
2017-06-01T13:14:19.669Z,31.71
2017-06-01T13:15:21.240Z,31.90
2017-06-01T13:16:22.922Z,31.71
2017-06-01T13:17:24.597Z,31.90
2017-06-01T13:18:26.193Z,32.10
2017-06-01T13:19:27.866Z,32.10
2017-06-01T13:20:29.593Z,31.90